Time;durP1;ratioP1;P1;durP2;ratioP2;P2;SDS_P1;SDS_P2;PMS_P1;PMS_P2;Temp;Humidity;BMP_temperature;BMP_pressure;BME280_temperature;BME280_humidity;BME280_pressure;Samples;Min_cycle;Max_cycle;Signal;HPM_P1;HPM_P2
2021/12/14 00:01:21;;;;;;;;;;;22.80;52.70;;;;;;5120632;28;20089;-52
2021/12/14 00:03:50;;;;;;;;;;;22.80;52.70;;;;;;5120937;28;19923;-52
2021/12/14 00:06:18;;;;;;;;;;;22.70;52.60;;;;;;5120878;28;20349;-53
2021/12/14 00:08:58;;;;;;;;;;;22.80;52.70;;;;;;5120566;28;19980;-49
2021/12/14 00:14:25;;;;;;;;;;;22.70;52.60;;;;;;5119232;27;19924;-51
2021/12/14 00:17:18;;;;;;;;;;;22.70;52.60;;;;;;5120616;28;19923;-52
2021/12/14 00:19:45;;;;;;;;;;;22.70;52.70;;;;;;5057744;28;19924;-53
2021/12/14 00:24:55;;;;;;;;;;;22.70;52.70;;;;;;5058178;28;19925;-46
2021/12/14 00:27:23;;;;;;;;;;;22.70;52.70;;;;;;5057642;28;19931;-51
2021/12/14 00:29:53;;;;;;;;;;;22.70;52.70;;;;;;5056538;28;20446;-50
2021/12/14 00:32:24;;;;;;;;;;;22.70;52.70;;;;;;5057627;28;19994;-48
2021/12/14 00:34:52;;;;;;;;;;;22.70;52.70;;;;;;5057845;28;20399;-50
2021/12/14 00:37:21;;;;;;;;;;;22.70;52.70;;;;;;5054494;28;19925;-51
2021/12/14 00:39:50;;;;;;;;;;;22.70;52.70;;;;;;5054569;28;20372;-52
2021/12/14 00:42:17;;;;;;;;;;;22.70;52.70;;;;;;5054391;28;19925;-50
2021/12/14 00:44:45;;;;;;;;;;;22.70;52.70;;;;;;5053649;28;19924;-51
2021/12/14 00:47:12;;;;;;;;;;;22.70;52.70;;;;;;5054191;28;19979;-53
2021/12/14 00:49:40;;;;;;;;;;;22.70;52.70;;;;;;5057698;28;19925;-54
2021/12/14 00:52:08;;;;;;;;;;;22.70;52.70;;;;;;5096884;28;19924;-48
2021/12/14 00:54:36;;;;;;;;;;;22.70;52.70;;;;;;5096434;28;19978;-49
2021/12/14 00:57:05;;;;;;;;;;;22.70;52.70;;;;;;5096554;28;19950;-52
2021/12/14 00:59:32;;;;;;;;;;;22.70;52.70;;;;;;5095536;28;20014;-48
2021/12/14 01:02:04;;;;;;;;;;;22.70;52.80;;;;;;5096289;28;19927;-47
2021/12/14 01:04:33;;;;;;;;;;;22.70;52.70;;;;;;5096624;28;20078;-47
2021/12/14 01:07:01;;;;;;;;;;;22.70;52.70;;;;;;5096497;28;19924;-54
2021/12/14 01:09:30;;;;;;;;;;;22.70;52.80;;;;;;5096154;28;19931;-50
2021/12/14 01:12:03;;;;;;;;;;;22.70;52.70;;;;;;5096428;28;19936;-49
2021/12/14 01:14:45;;;;;;;;;;;22.70;52.80;;;;;;5095095;28;19924;-54
2021/12/14 01:17:28;;;;;;;;;;;22.70;52.70;;;;;;5095846;28;19978;-48
2021/12/14 01:19:59;;;;;;;;;;;22.70;52.80;;;;;;5109539;28;19924;-49
2021/12/14 01:22:39;;;;;;;;;;;22.70;52.70;;;;;;5116133;28;19923;-51
2021/12/14 01:25:09;;;;;;;;;;;22.70;52.80;;;;;;5116234;28;19927;-50
2021/12/14 01:27:39;;;;;;;;;;;22.70;52.80;;;;;;5116388;28;19923;-53
2021/12/14 01:30:13;;;;;;;;;;;22.70;52.80;;;;;;5115557;28;19969;-52
2021/12/14 01:32:44;;;;;;;;;;;22.70;52.80;;;;;;5116087;28;19923;-55
2021/12/14 01:35:14;;;;;;;;;;;22.70;52.80;;;;;;5116344;28;19924;-55
2021/12/14 01:37:46;;;;;;;;;;;22.70;52.80;;;;;;5115868;28;19924;-56
2021/12/14 01:40:30;;;;;;;;;;;22.70;52.80;;;;;;5116260;28;19928;-50
2021/12/14 01:42:57;;;;;;;;;;;22.60;52.70;;;;;;5116498;28;19923;-52
2021/12/14 01:45:26;;;;;;;;;;;22.70;52.80;;;;;;5114579;28;19923;-51
2021/12/14 01:47:55;;;;;;;;;;;22.60;52.70;;;;;;5114849;28;19991;-52
2021/12/14 01:50:25;;;;;;;;;;;22.60;52.70;;;;;;5115341;28;19924;-52
2021/12/14 01:52:52;;;;;;;;;;;22.60;52.70;;;;;;5115983;28;19976;-56
2021/12/14 01:55:21;;;;;;;;;;;22.60;52.80;;;;;;5115570;28;19924;-50
2021/12/14 01:57:48;;;;;;;;;;;22.70;52.80;;;;;;5115756;28;19923;-52
2021/12/14 02:00:20;;;;;;;;;;;22.60;52.70;;;;;;5114752;28;19980;-50
2021/12/14 02:02:48;;;;;;;;;;;22.60;52.70;;;;;;5115238;28;19928;-49
2021/12/14 02:05:23;;;;;;;;;;;22.60;52.70;;;;;;5115363;28;19924;-49
2021/12/14 02:07:50;;;;;;;;;;;22.60;52.70;;;;;;5115681;28;20299;-50
2021/12/14 02:10:22;;;;;;;;;;;22.60;52.80;;;;;;5115594;28;19928;-54
2021/12/14 02:12:49;;;;;;;;;;;22.60;52.80;;;;;;5115232;28;20440;-54
2021/12/14 02:15:22;;;;;;;;;;;22.60;52.80;;;;;;5114165;28;19931;-53
2021/12/14 02:17:50;;;;;;;;;;;22.60;52.80;;;;;;5115002;28;19931;-56
2021/12/14 02:20:20;;;;;;;;;;;22.60;52.80;;;;;;5114955;28;19934;-54
2021/12/14 02:22:48;;;;;;;;;;;22.60;52.80;;;;;;5114896;28;20444;-53
2021/12/14 02:25:15;;;;;;;;;;;22.60;52.80;;;;;;5114996;28;20402;-56
2021/12/14 02:27:44;;;;;;;;;;;22.60;52.80;;;;;;5115287;28;19947;-57
2021/12/14 02:30:16;;;;;;;;;;;22.60;52.70;;;;;;5114806;28;19924;-51
2021/12/14 02:32:44;;;;;;;;;;;22.60;52.80;;;;;;5115025;28;19928;-45
2021/12/14 02:35:13;;;;;;;;;;;22.60;52.80;;;;;;5114866;28;20431;-55
2021/12/14 02:37:45;;;;;;;;;;;22.60;52.80;;;;;;5115005;28;19930;-47
2021/12/14 02:40:19;;;;;;;;;;;22.60;52.80;;;;;;5115150;28;19923;-48
2021/12/14 02:42:48;;;;;;;;;;;22.60;52.80;;;;;;5114753;28;19930;-47
2021/12/14 02:45:16;;;;;;;;;;;22.60;52.70;;;;;;5096654;28;19924;-53
2021/12/14 02:47:43;;;;;;;;;;;22.60;52.80;;;;;;5113300;28;19923;-52
2021/12/14 02:50:10;;;;;;;;;;;22.60;52.80;;;;;;5114908;28;19928;-52
2021/12/14 02:52:38;;;;;;;;;;;22.60;52.80;;;;;;5114856;28;20012;-48
2021/12/14 02:55:13;;;;;;;;;;;22.60;52.80;;;;;;5114527;28;19927;-50
2021/12/14 02:57:45;;;;;;;;;;;22.60;52.70;;;;;;5114727;28;19989;-52
2021/12/14 03:00:15;;;;;;;;;;;22.60;52.80;;;;;;5114348;28;19927;-51
2021/12/14 03:02:42;;;;;;;;;;;22.60;52.80;;;;;;5113671;28;20268;-50
2021/12/14 03:05:20;;;;;;;;;;;22.60;52.80;;;;;;5114731;28;20356;-49
2021/12/14 03:07:53;;;;;;;;;;;22.50;52.70;;;;;;5114405;28;19973;-53
2021/12/14 03:10:35;;;;;;;;;;;22.60;52.80;;;;;;5114605;28;19923;-52
2021/12/14 03:13:05;;;;;;;;;;;22.60;52.80;;;;;;5114303;28;20386;-54
2021/12/14 03:15:53;;;;;;;;;;;22.60;52.80;;;;;;5114633;28;19927;-51
2021/12/14 03:18:25;;;;;;;;;;;22.50;52.70;;;;;;5112891;28;19923;-52
2021/12/14 03:20:58;;;;;;;;;;;22.50;52.70;;;;;;5114531;28;19980;-46
2021/12/14 03:23:29;;;;;;;;;;;22.50;52.80;;;;;;5114346;28;19931;-55
2021/12/14 03:25:58;;;;;;;;;;;22.50;52.70;;;;;;5114477;28;19935;-50
2021/12/14 03:28:26;;;;;;;;;;;22.50;52.70;;;;;;5114118;28;19924;-46
2021/12/14 03:30:58;;;;;;;;;;;22.50;52.80;;;;;;5113555;28;19924;-52
2021/12/14 03:33:28;;;;;;;;;;;22.50;52.80;;;;;;5134528;28;19924;-48
2021/12/14 03:35:57;;;;;;;;;;;22.50;52.80;;;;;;5134583;28;19953;-48
2021/12/14 03:38:36;;;;;;;;;;;22.50;52.80;;;;;;5134492;28;20432;-53
2021/12/14 03:41:07;;;;;;;;;;;22.50;52.80;;;;;;5134634;28;19927;-49
2021/12/14 03:43:35;;;;;;;;;;;22.50;52.80;;;;;;5135350;28;19972;-45
2021/12/14 03:46:03;;;;;;;;;;;22.50;52.80;;;;;;5133946;28;19949;-47
2021/12/14 03:48:30;;;;;;;;;;;22.50;52.80;;;;;;5113399;28;20451;-55
2021/12/14 03:50:57;;;;;;;;;;;22.50;52.80;;;;;;5113886;28;19927;-50
2021/12/14 03:53:24;;;;;;;;;;;22.50;52.80;;;;;;5113874;28;20383;-51
2021/12/14 03:55:56;;;;;;;;;;;22.50;52.80;;;;;;5113861;28;19924;-53
2021/12/14 03:58:25;;;;;;;;;;;22.50;52.80;;;;;;5114310;28;19924;-54
2021/12/14 04:00:55;;;;;;;;;;;22.50;52.80;;;;;;5114102;28;19924;-48
2021/12/14 04:03:24;;;;;;;;;;;22.50;52.80;;;;;;5112555;28;19924;-47
2021/12/14 04:05:52;;;;;;;;;;;22.50;52.80;;;;;;5114604;28;19973;-50
2021/12/14 04:08:19;;;;;;;;;;;22.50;52.90;;;;;;5114031;28;20332;-48
2021/12/14 04:10:47;;;;;;;;;;;22.50;52.90;;;;;;5114318;28;19924;-46
2021/12/14 04:13:25;;;;;;;;;;;22.50;52.90;;;;;;5117521;28;19924;-46
2021/12/14 04:15:53;;;;;;;;;;;22.50;52.90;;;;;;5117612;28;19969;-51
2021/12/14 04:18:20;;;;;;;;;;;22.50;52.90;;;;;;5116303;27;19923;-48
2021/12/14 04:20:47;;;;;;;;;;;22.50;52.90;;;;;;5117486;28;19923;-50
2021/12/14 04:23:16;;;;;;;;;;;22.50;52.90;;;;;;5117364;28;19969;-52
2021/12/14 04:25:44;;;;;;;;;;;22.50;52.90;;;;;;5117390;28;20379;-51
2021/12/14 04:28:13;;;;;;;;;;;22.50;52.90;;;;;;5118230;28;19923;-46
2021/12/14 04:30:40;;;;;;;;;;;22.50;52.90;;;;;;5117339;28;19923;-48
2021/12/14 04:33:09;;;;;;;;;;;22.50;52.90;;;;;;5116363;27;19932;-46
2021/12/14 04:35:38;;;;;;;;;;;22.50;52.90;;;;;;5117219;28;19923;-50
2021/12/14 04:38:13;;;;;;;;;;;22.50;52.90;;;;;;5117391;28;19977;-54
2021/12/14 04:51:58;;;;;;;;;;;22.50;52.90;;;;;;5117225;28;19923;-53
2021/12/14 04:54:27;;;;;;;;;;;22.40;52.80;;;;;;5116955;28;19923;-50
2021/12/14 04:56:54;;;;;;;;;;;22.40;52.80;;;;;;5117197;28;19924;-56
2021/12/14 04:59:24;;;;;;;;;;;22.50;52.90;;;;;;5116715;28;19931;-52
2021/12/14 05:01:53;;;;;;;;;;;22.40;52.80;;;;;;5116496;27;19924;-55
2021/12/14 05:04:22;;;;;;;;;;;22.40;52.90;;;;;;5116362;28;19930;-53
2021/12/14 05:06:56;;;;;;;;;;;22.40;52.80;;;;;;5099126;28;19928;-48
2021/12/14 05:09:29;;;;;;;;;;;22.40;52.90;;;;;;5116595;28;19928;-49
2021/12/14 05:11:57;;;;;;;;;;;22.40;52.80;;;;;;5116855;28;19951;-52
2021/12/14 05:14:24;;;;;;;;;;;22.40;52.90;;;;;;5116428;28;19973;-53
2021/12/14 05:16:53;;;;;;;;;;;22.40;52.90;;;;;;5116204;28;19977;-46
2021/12/14 05:19:30;;;;;;;;;;;22.40;52.90;;;;;;5116171;27;19935;-54
2021/12/14 05:22:23;;;;;;;;;;;22.40;52.90;;;;;;5116590;28;19924;-50
2021/12/14 05:24:56;;;;;;;;;;;22.40;52.90;;;;;;5112046;28;20417;-47
2021/12/14 05:27:27;;;;;;;;;;;22.40;52.90;;;;;;5117078;28;19924;-50
2021/12/14 05:30:01;;;;;;;;;;;22.40;52.80;;;;;;5116234;28;20299;-48
2021/12/14 05:32:28;;;;;;;;;;;22.40;52.90;;;;;;5115215;28;20662;-49
2021/12/14 05:34:55;;;;;;;;;;;22.40;52.80;;;;;;5116331;28;19928;-48
2021/12/14 05:37:26;;;;;;;;;;;22.40;52.80;;;;;;5115944;28;19928;-46
2021/12/14 05:39:58;;;;;;;;;;;22.40;52.90;;;;;;5115968;28;19973;-50
2021/12/14 05:45:16;;;;;;;;;;;22.40;52.80;;;;;;5115853;28;19970;-49
2021/12/14 05:47:49;;;;;;;;;;;22.40;52.90;;;;;;5114823;28;20006;-48
2021/12/14 05:50:18;;;;;;;;;;;22.40;52.90;;;;;;5116060;28;19973;-46
2021/12/14 05:52:45;;;;;;;;;;;22.40;52.80;;;;;;5115806;28;19924;-47
2021/12/14 05:55:12;;;;;;;;;;;22.40;52.80;;;;;;5115935;28;19928;-50
2021/12/14 05:57:40;;;;;;;;;;;22.40;52.80;;;;;;5115780;28;20309;-52
2021/12/14 06:00:10;;;;;;;;;;;22.40;52.80;;;;;;5115787;28;19931;-53
2021/12/14 06:02:37;;;;;;;;;;;22.40;52.80;;;;;;5114621;28;19927;-54
2021/12/14 06:05:09;;;;;;;;;;;22.40;52.80;;;;;;5115406;28;19930;-47
2021/12/14 06:07:36;;;;;;;;;;;22.40;52.70;;;;;;5116224;28;19968;-54
2021/12/14 06:10:04;;;;;;;;;;;22.40;52.70;;;;;;5115604;28;19993;-45
2021/12/14 06:12:32;;;;;;;;;;;22.40;52.70;;;;;;5115580;28;19963;-55
2021/12/14 06:15:01;;;;;;;;;;;22.40;52.80;;;;;;5115172;28;19924;-47
2021/12/14 06:17:30;;;;;;;;;;;22.50;52.70;;;;;;5115502;28;19927;-47
2021/12/14 06:19:58;;;;;;;;;;;22.40;52.70;;;;;;5113850;28;19927;-47
2021/12/14 06:22:26;;;;;;;;;;;22.40;52.60;;;;;;5114938;28;19923;-46
2021/12/14 06:24:54;;;;;;;;;;;22.40;52.60;;;;;;5115064;28;19972;-53
2021/12/14 06:27:23;;;;;;;;;;;22.50;52.70;;;;;;5115338;28;19924;-53
2021/12/14 06:29:58;;;;;;;;;;;22.40;52.60;;;;;;5097296;28;19946;-54
2021/12/14 06:32:26;;;;;;;;;;;22.50;52.70;;;;;;5115186;28;19924;-50
2021/12/14 06:34:55;;;;;;;;;;;22.50;52.70;;;;;;5113339;28;19977;-54
2021/12/14 06:40:10;;;;;;;;;;;22.50;52.60;;;;;;5115129;28;19928;-52
2021/12/14 06:42:39;;;;;;;;;;;22.50;52.60;;;;;;5115050;28;19924;-54
2021/12/14 06:45:19;;;;;;;;;;;22.50;52.50;;;;;;5115018;28;19969;-48
2021/12/14 06:47:49;;;;;;;;;;;22.50;52.50;;;;;;5114571;28;19938;-46
2021/12/14 06:50:18;;;;;;;;;;;22.50;52.50;;;;;;5113545;27;19924;-47
2021/12/14 06:53:17;;;;;;;;;;;22.50;52.50;;;;;;5114620;28;20345;-51
2021/12/14 06:55:45;;;;;;;;;;;22.50;52.50;;;;;;5012489;28;19941;-51
2021/12/14 06:58:14;;;;;;;;;;;22.50;52.50;;;;;;5012934;28;20436;-56
2021/12/14 07:00:44;;;;;;;;;;;22.50;52.40;;;;;;5012977;28;20374;-56
2021/12/14 07:03:11;;;;;;;;;;;22.50;52.40;;;;;;5012008;28;19925;-49
2021/12/14 07:05:39;;;;;;;;;;;22.50;52.40;;;;;;5031956;28;19929;-49
2021/12/14 07:08:09;;;;;;;;;;;22.50;52.40;;;;;;5031859;28;19948;-49
2021/12/14 07:10:38;;;;;;;;;;;22.50;52.40;;;;;;5015507;28;19925;-53
2021/12/14 07:13:12;;;;;;;;;;;22.60;52.40;;;;;;5032181;28;19933;-48
2021/12/14 07:15:39;;;;;;;;;;;22.60;52.40;;;;;;5031740;28;19925;-47
2021/12/14 07:18:08;;;;;;;;;;;22.50;52.30;;;;;;5031738;28;20450;-47
2021/12/14 07:20:40;;;;;;;;;;;22.60;52.30;;;;;;5030033;28;19931;-50
2021/12/14 07:23:16;;;;;;;;;;;22.60;52.30;;;;;;5031561;28;19925;-52
2021/12/14 07:25:43;;;;;;;;;;;22.60;52.30;;;;;;5031720;28;19932;-50
2021/12/14 07:28:11;;;;;;;;;;;22.60;52.30;;;;;;5032409;28;19925;-49
2021/12/14 07:30:41;;;;;;;;;;;22.60;52.20;;;;;;5043739;28;19928;-46
2021/12/14 07:33:10;;;;;;;;;;;22.60;52.20;;;;;;5093586;28;20001;-48
2021/12/14 07:35:39;;;;;;;;;;;22.70;52.20;;;;;;5092740;28;19924;-50
2021/12/14 07:38:09;;;;;;;;;;;22.70;52.20;;;;;;5093945;28;19978;-51
2021/12/14 07:40:40;;;;;;;;;;;22.70;52.20;;;;;;5094003;28;19924;-48
2021/12/14 07:43:10;;;;;;;;;;;22.70;52.30;;;;;;5092519;28;19924;-48
2021/12/14 07:45:38;;;;;;;;;;;22.70;52.10;;;;;;5094605;28;20334;-49
2021/12/14 07:48:05;;;;;;;;;;;22.70;52.10;;;;;;5097934;28;19959;-50
2021/12/14 07:50:52;;;;;;;;;;;22.70;52.10;;;;;;5096427;28;20437;-50
2021/12/14 07:53:31;;;;;;;;;;;22.80;52.10;;;;;;5097357;28;19923;-46
2021/12/14 07:55:59;;;;;;;;;;;22.70;52.00;;;;;;5098208;28;20381;-50
2021/12/14 07:58:44;;;;;;;;;;;22.70;51.90;;;;;;5097769;28;19924;-47
2021/12/14 08:01:13;;;;;;;;;;;22.70;51.90;;;;;;5097855;28;19924;-51
2021/12/14 08:03:40;;;;;;;;;;;22.80;52.00;;;;;;5097413;28;20438;-47
2021/12/14 08:06:09;;;;;;;;;;;22.80;51.90;;;;;;5096884;28;19947;-52
2021/12/14 08:08:49;;;;;;;;;;;22.80;51.90;;;;;;5097569;28;19924;-53
2021/12/14 08:13:56;;;;;;;;;;;22.80;51.90;;;;;;5097335;28;19924;-48
2021/12/14 08:16:23;;;;;;;;;;;22.80;51.90;;;;;;5095995;28;19928;-49
2021/12/14 08:18:51;;;;;;;;;;;22.80;51.90;;;;;;5095589;28;19931;-51
2021/12/14 08:21:19;;;;;;;;;;;22.80;51.90;;;;;;5096556;28;19928;-53
2021/12/14 08:23:53;;;;;;;;;;;22.80;51.80;;;;;;5097142;28;19924;-52
2021/12/14 08:26:34;;;;;;;;;;;22.80;51.80;;;;;;5097317;28;20295;-47
2021/12/14 08:29:05;;;;;;;;;;;22.80;51.70;;;;;;5097015;28;19931;-52
2021/12/14 08:31:35;;;;;;;;;;;22.90;51.80;;;;;;5096942;28;19925;-50
2021/12/14 08:34:04;;;;;;;;;;;22.90;51.70;;;;;;5096552;28;19924;-50
2021/12/14 08:36:42;;;;;;;;;;;22.90;51.70;;;;;;5096945;28;19927;-54
2021/12/14 08:39:12;;;;;;;;;;;22.90;51.70;;;;;;5096717;28;19971;-54
2021/12/14 08:41:47;;;;;;;;;;;22.90;51.60;;;;;;5096768;28;19924;-53
2021/12/14 08:44:21;;;;;;;;;;;23.00;51.70;;;;;;5096766;28;19924;-55
2021/12/14 08:46:51;;;;;;;;;;;23.00;51.60;;;;;;5096613;28;20391;-53
2021/12/14 08:49:19;;;;;;;;;;;23.00;51.60;;;;;;5095502;28;20387;-58
2021/12/14 08:51:47;;;;;;;;;;;23.00;51.50;;;;;;5097158;28;19924;-53
2021/12/14 08:54:16;;;;;;;;;;;23.00;51.50;;;;;;5096653;28;19928;-54
2021/12/14 08:56:48;;;;;;;;;;;23.00;51.50;;;;;;5096781;28;19924;-52
2021/12/14 08:59:14;;;;;;;;;;;23.00;51.40;;;;;;5095839;28;19969;-53
2021/12/14 09:01:43;;;;;;;;;;;23.00;51.40;;;;;;5096627;28;19924;-54
2021/12/14 09:04:14;;;;;;;;;;;23.00;51.50;;;;;;5096545;28;20023;-49
2021/12/14 09:06:45;;;;;;;;;;;23.00;51.40;;;;;;5095745;28;20410;-48
2021/12/14 09:09:13;;;;;;;;;;;23.00;51.40;;;;;;5096944;28;19946;-49
2021/12/14 09:11:44;;;;;;;;;;;23.10;52.10;;;;;;5096389;28;19931;-52
2021/12/14 09:14:16;;;;;;;;;;;23.10;51.50;;;;;;5096162;28;19924;-51
2021/12/14 09:16:47;;;;;;;;;;;23.00;51.40;;;;;;5095172;28;19932;-51
2021/12/14 09:19:18;;;;;;;;;;;23.00;51.40;;;;;;5103782;28;19924;-55
2021/12/14 09:21:51;;;;;;;;;;;23.10;51.50;;;;;;5115395;27;19924;-51
2021/12/14 09:24:20;;;;;;;;;;;23.10;51.50;;;;;;5098207;28;20387;-50
2021/12/14 09:26:49;;;;;;;;;;;23.10;51.50;;;;;;5116588;28;19972;-49
2021/12/14 09:29:17;;;;;;;;;;;23.10;51.40;;;;;;5117502;28;19969;-52
2021/12/14 09:31:47;;;;;;;;;;;23.10;51.40;;;;;;5116217;28;19923;-49
2021/12/14 09:34:16;;;;;;;;;;;23.10;51.40;;;;;;5116914;28;19923;-53
2021/12/14 09:36:44;;;;;;;;;;;23.10;51.40;;;;;;5115034;28;19924;-57
2021/12/14 09:39:17;;;;;;;;;;;23.10;51.40;;;;;;5116180;28;19949;-51
2021/12/14 09:41:46;;;;;;;;;;;23.10;51.30;;;;;;5115945;28;19924;-50
2021/12/14 09:44:16;;;;;;;;;;;23.20;51.30;;;;;;5115853;28;20382;-52
2021/12/14 09:46:45;;;;;;;;;;;23.20;51.30;;;;;;5115970;28;19923;-48
2021/12/14 09:49:14;;;;;;;;;;;23.20;51.30;;;;;;5115740;28;19977;-55
2021/12/14 09:51:46;;;;;;;;;;;23.20;51.30;;;;;;5114419;28;19924;-49
2021/12/14 09:54:16;;;;;;;;;;;23.20;51.20;;;;;;5115557;28;19963;-51
2021/12/14 09:56:45;;;;;;;;;;;23.20;51.40;;;;;;5115674;28;19965;-47
2021/12/14 09:59:13;;;;;;;;;;;23.30;51.20;;;;;;5115426;28;19975;-49
2021/12/14 10:01:43;;;;;;;;;;;23.30;51.20;;;;;;5115763;28;19930;-45
2021/12/14 10:04:16;;;;;;;;;;;23.30;51.20;;;;;;5115850;28;19923;-48
2021/12/14 10:06:49;;;;;;;;;;;23.30;51.10;;;;;;5114258;28;19953;-50
2021/12/14 10:09:19;;;;;;;;;;;23.30;51.10;;;;;;5114348;28;19924;-50
2021/12/14 10:14:27;;;;;;;;;;;23.30;51.10;;;;;;5115630;28;19946;-48
2021/12/14 10:16:54;;;;;;;;;;;23.30;51.10;;;;;;5115368;28;19960;-55
2021/12/14 10:19:23;;;;;;;;;;;23.30;51.10;;;;;;5115049;28;19923;-53
2021/12/14 10:21:54;;;;;;;;;;;23.30;51.10;;;;;;5114486;27;19923;-56
2021/12/14 10:24:22;;;;;;;;;;;23.30;51.10;;;;;;5115191;28;19927;-49
2021/12/14 10:26:51;;;;;;;;;;;23.40;51.10;;;;;;5115231;28;19931;-50
2021/12/14 10:29:19;;;;;;;;;;;23.40;51.10;;;;;;5115814;28;19931;-52
2021/12/14 10:31:49;;;;;;;;;;;23.40;51.10;;;;;;5114957;28;20418;-50
2021/12/14 10:34:21;;;;;;;;;;;23.40;51.10;;;;;;5115233;28;19924;-48
2021/12/14 10:36:58;;;;;;;;;;;23.40;51.10;;;;;;5114180;27;19923;-55
2021/12/14 10:39:39;;;;;;;;;;;23.40;51.10;;;;;;5114770;28;19970;-53
2021/12/14 10:44:58;;;;;;;;;;;23.40;51.10;;;;;;5114759;28;19928;-54
2021/12/14 10:47:27;;;;;;;;;;;23.40;51.00;;;;;;5114565;28;19923;-50
2021/12/14 10:49:54;;;;;;;;;;;23.40;51.00;;;;;;5114962;28;19923;-51
2021/12/14 10:52:26;;;;;;;;;;;23.40;51.00;;;;;;5113199;28;19923;-53
2021/12/14 10:54:55;;;;;;;;;;;23.40;51.00;;;;;;5114610;28;19923;-56
2021/12/14 10:57:24;;;;;;;;;;;23.40;51.00;;;;;;5114497;28;20344;-47
2021/12/14 10:59:52;;;;;;;;;;;23.40;51.00;;;;;;5114384;28;19967;-54
2021/12/14 11:02:22;;;;;;;;;;;23.50;51.00;;;;;;5114435;28;19927;-54
2021/12/14 11:04:54;;;;;;;;;;;23.50;51.00;;;;;;5114398;28;19928;-48
2021/12/14 11:07:27;;;;;;;;;;;23.50;51.00;;;;;;5113483;27;20395;-50
2021/12/14 11:10:05;;;;;;;;;;;23.50;51.00;;;;;;5114652;28;19924;-49
2021/12/14 11:12:33;;;;;;;;;;;23.50;51.00;;;;;;5096634;28;19923;-52
2021/12/14 11:15:04;;;;;;;;;;;23.50;51.00;;;;;;5114600;28;20337;-53
2021/12/14 11:20:19;;;;;;;;;;;23.50;51.00;;;;;;5113751;28;19973;-48
2021/12/14 11:23:08;;;;;;;;;;;23.50;50.90;;;;;;5113223;28;19928;-51
2021/12/14 11:25:45;;;;;;;;;;;23.50;51.00;;;;;;5114165;28;20355;-46
2021/12/14 11:28:21;;;;;;;;;;;23.50;50.90;;;;;;5114414;28;20337;-53
2021/12/14 11:30:50;;;;;;;;;;;23.50;50.90;;;;;;5114117;28;20030;-47
2021/12/14 11:33:25;;;;;;;;;;;23.50;50.90;;;;;;5114356;28;19924;-47
2021/12/14 11:35:55;;;;;;;;;;;23.50;51.00;;;;;;5113997;28;19930;-48
2021/12/14 11:38:42;;;;;;;;;;;23.50;51.00;;;;;;5113000;28;19924;-51
2021/12/14 11:41:22;;;;;;;;;;;23.50;51.00;;;;;;5113925;28;20291;-52
2021/12/14 11:43:51;;;;;;;;;;;23.50;51.00;;;;;;5113979;28;19931;-47
2021/12/14 11:46:19;;;;;;;;;;;23.50;51.00;;;;;;5114444;28;19935;-51
2021/12/14 11:48:46;;;;;;;;;;;23.50;51.00;;;;;;5113891;28;19924;-50
2021/12/14 11:51:14;;;;;;;;;;;23.50;51.00;;;;;;5113103;28;19924;-55
2021/12/14 11:53:48;;;;;;;;;;;23.50;51.00;;;;;;5113776;28;19924;-52
2021/12/14 11:56:16;;;;;;;;;;;23.50;51.00;;;;;;5114199;28;19928;-56
2021/12/14 11:58:46;;;;;;;;;;;23.50;51.00;;;;;;5113776;28;19924;-49
2021/12/14 12:01:25;;;;;;;;;;;23.50;51.00;;;;;;5113710;28;19923;-56
2021/12/14 12:03:55;;;;;;;;;;;23.60;51.10;;;;;;5113704;28;19959;-54
2021/12/14 12:06:35;;;;;;;;;;;23.50;51.00;;;;;;5113058;28;19924;-53
2021/12/14 12:11:51;;;;;;;;;;;23.50;51.00;;;;;;5113987;28;19927;-52
2021/12/14 12:14:20;;;;;;;;;;;23.50;51.10;;;;;;5113975;28;19924;-56
2021/12/14 12:16:47;;;;;;;;;;;23.50;51.10;;;;;;5113812;28;19924;-53
2021/12/14 12:19:19;;;;;;;;;;;23.60;51.10;;;;;;5114392;28;19923;-52
2021/12/14 12:21:47;;;;;;;;;;;23.60;51.10;;;;;;5112519;28;19924;-53
2021/12/14 12:24:32;;;;;;;;;;;23.60;51.10;;;;;;5113406;28;19931;-48
2021/12/14 12:27:16;;;;;;;;;;;23.60;51.70;;;;;;5113564;28;19927;-49
2021/12/14 12:29:43;;;;;;;;;;;23.60;51.10;;;;;;5113544;28;19973;-49
2021/12/14 12:32:20;;;;;;;;;;;23.60;51.10;;;;;;5113807;28;20336;-51
2021/12/14 12:34:49;;;;;;;;;;;23.60;51.10;;;;;;5117599;28;20333;-49
2021/12/14 12:37:33;;;;;;;;;;;23.50;51.10;;;;;;5116186;27;19924;-49
2021/12/14 12:40:00;;;;;;;;;;;23.60;51.20;;;;;;5117403;28;19928;-52
2021/12/14 12:42:27;;;;;;;;;;;23.60;51.10;;;;;;5117344;28;19931;-49
2021/12/14 12:44:54;;;;;;;;;;;23.60;51.20;;;;;;5118238;28;20301;-54
2021/12/14 12:47:22;;;;;;;;;;;23.60;51.20;;;;;;5099215;28;19931;-47
2021/12/14 12:49:51;;;;;;;;;;;23.60;51.20;;;;;;5099016;28;20406;-47
2021/12/14 12:52:18;;;;;;;;;;;23.60;51.20;;;;;;5115661;27;19980;-51
2021/12/14 12:54:51;;;;;;;;;;;23.60;51.20;;;;;;5116857;28;20390;-54
2021/12/14 12:57:29;;;;;;;;;;;23.60;51.20;;;;;;5117142;28;20321;-51
2021/12/14 12:59:56;;;;;;;;;;;23.60;51.20;;;;;;5116662;28;19928;-50
2021/12/14 13:02:30;;;;;;;;;;;23.50;51.10;;;;;;5116770;28;19970;-50
2021/12/14 13:04:59;;;;;;;;;;;23.60;51.30;;;;;;5116938;28;20299;-54
2021/12/14 13:07:35;;;;;;;;;;;23.60;51.20;;;;;;5115591;28;20375;-49
2021/12/14 13:10:23;;;;;;;;;;;23.60;51.20;;;;;;5116758;28;19947;-53
2021/12/14 13:12:56;;;;;;;;;;;23.60;51.30;;;;;;5100239;28;19927;-52
2021/12/14 13:15:28;;;;;;;;;;;23.60;51.30;;;;;;5117007;28;19924;-49
2021/12/14 13:18:14;;;;;;;;;;;23.60;51.30;;;;;;5116596;28;19924;-50
2021/12/14 13:20:42;;;;;;;;;;;23.60;51.30;;;;;;5116086;28;19924;-49
2021/12/14 13:23:09;;;;;;;;;;;23.60;51.30;;;;;;5115230;28;19924;-50
2021/12/14 13:25:38;;;;;;;;;;;23.60;51.30;;;;;;5117302;28;19924;-49
2021/12/14 13:28:05;;;;;;;;;;;23.60;51.30;;;;;;5117340;28;19938;-52
2021/12/14 13:30:32;;;;;;;;;;;23.60;51.30;;;;;;5116465;28;19946;-53
2021/12/14 13:32:59;;;;;;;;;;;23.60;51.30;;;;;;5116117;28;20044;-54
2021/12/14 13:35:31;;;;;;;;;;;23.60;51.30;;;;;;5116107;28;20375;-53
2021/12/14 13:38:01;;;;;;;;;;;23.60;51.30;;;;;;5115198;28;19977;-50
2021/12/14 13:40:33;;;;;;;;;;;23.60;51.30;;;;;;5116204;28;19981;-52
2021/12/14 13:43:18;;;;;;;;;;;23.60;51.30;;;;;;5116244;28;20345;-52
2021/12/14 13:45:56;;;;;;;;;;;23.60;51.30;;;;;;5116114;28;20287;-48
2021/12/14 13:48:29;;;;;;;;;;;23.60;51.30;;;;;;5115940;28;19932;-49
2021/12/14 13:51:16;;;;;;;;;;;23.60;51.30;;;;;;5097821;28;19931;-46
2021/12/14 13:53:45;;;;;;;;;;;23.60;51.30;;;;;;5114567;27;19931;-52
2021/12/14 13:56:14;;;;;;;;;;;23.60;51.30;;;;;;5115691;28;19931;-54
2021/12/14 13:58:41;;;;;;;;;;;23.60;51.40;;;;;;5115628;28;19928;-52
2021/12/14 14:01:08;;;;;;;;;;;23.60;51.40;;;;;;5115516;28;19973;-54
2021/12/14 14:03:40;;;;;;;;;;;23.60;51.40;;;;;;5115846;28;19923;-49
2021/12/14 14:06:10;;;;;;;;;;;23.60;51.40;;;;;;5115552;28;19924;-46
2021/12/14 14:08:52;;;;;;;;;;;23.60;51.40;;;;;;5114553;28;19969;-48
2021/12/14 14:11:28;;;;;;;;;;;23.60;51.50;;;;;;5115732;28;19968;-53
2021/12/14 14:13:58;;;;;;;;;;;23.60;51.50;;;;;;5115967;28;20360;-52
2021/12/14 14:16:40;;;;;;;;;;;23.60;51.50;;;;;;5115551;28;20294;-48
2021/12/14 14:19:10;;;;;;;;;;;23.60;51.50;;;;;;5115197;28;19924;-52
2021/12/14 14:21:37;;;;;;;;;;;23.60;51.50;;;;;;5115213;28;19924;-53
2021/12/14 14:24:04;;;;;;;;;;;23.60;51.50;;;;;;5113868;27;19924;-49
2021/12/14 14:26:31;;;;;;;;;;;23.60;51.50;;;;;;5115084;28;19923;-51
2021/12/14 14:29:04;;;;;;;;;;;23.60;51.50;;;;;;5115375;28;19988;-50
2021/12/14 14:31:34;;;;;;;;;;;23.60;51.50;;;;;;5115023;28;20375;-56
2021/12/14 14:34:04;;;;;;;;;;;23.60;51.60;;;;;;5097213;28;19924;-54
2021/12/14 14:36:43;;;;;;;;;;;23.60;51.60;;;;;;5114913;28;19924;-49
2021/12/14 14:39:12;;;;;;;;;;;23.60;51.60;;;;;;5113956;27;19931;-49
2021/12/14 14:41:44;;;;;;;;;;;23.60;51.60;;;;;;5115153;28;19988;-51
2021/12/14 14:44:13;;;;;;;;;;;23.60;51.70;;;;;;5114797;28;19928;-50
2021/12/14 14:47:11;;;;;;;;;;;23.60;51.70;;;;;;5114921;28;19924;-48
2021/12/14 14:49:38;;;;;;;;;;;23.60;51.70;;;;;;5115572;28;20108;-50
2021/12/14 14:52:24;;;;;;;;;;;23.60;51.70;;;;;;5114546;28;20336;-51
2021/12/14 14:54:56;;;;;;;;;;;23.60;51.70;;;;;;5113610;27;19928;-53
2021/12/14 14:57:23;;;;;;;;;;;23.60;51.80;;;;;;5114231;28;19923;-51
2021/12/14 14:59:55;;;;;;;;;;;23.60;51.80;;;;;;5114721;28;19992;-54
2021/12/14 15:02:35;;;;;;;;;;;23.60;51.80;;;;;;5114799;28;20287;-56
2021/12/14 15:05:07;;;;;;;;;;;23.60;51.80;;;;;;5114430;28;19973;-53
2021/12/14 15:07:52;;;;;;;;;;;23.60;51.80;;;;;;5115269;28;19928;-52
2021/12/14 15:10:22;;;;;;;;;;;23.50;51.70;;;;;;5113251;28;19924;-52
2021/12/14 15:13:10;;;;;;;;;;;23.60;51.80;;;;;;5114669;28;20287;-55
2021/12/14 15:15:37;;;;;;;;;;;23.50;51.70;;;;;;5114454;28;19924;-54